Cleveland, Texas
Current Conditions -  °F | °C
As of 7:50 PM on Monday 22 Dec 2014 (Local Time) from K6R3 Reporting Station
Clear Clear  
Wind Chill: 57°   Ceiling: Unl
Heat Index: 57°   Visibility: 7mi
Dew Point: 56°   Wind: 0mph
Humidity: 94%   Direction: NA
Pressure: 29.66"   Gusts: NA
Location:  30.34°N, 95.09°W
Report Text: K6R3 230150Z AUTO 00000KT 7SM CLR 14/13 A2966 RMK AO2 T01410131
Loading
Personal Weather Stations






























Interactive Weather Map New forecast layout! Learn more

10-Day Weather Forecast

Advertisements
Track Severe Weather on mobile